KMM309 EDDM-LMML
Flight info
| Callsign | KMM309 |
|---|---|
| Flight time | N/A |
| Altitude | 37000 |
| Route | TURBU7S/26L TURBU Y107 TOBSO DCT BAKOR DCT SOVUB DCT DIPVO DCT UNIXO DCT MARON DCT EKOLA L12 GZO |
| Aircraft | A320/M-SDE3FGHIRWY/LB1 |
Departure
| Time | N/A |
|---|---|
| Airport | Munich Airport (EDDM) |
Arrival
| Time | 2026-05-07 18:32 |
|---|---|
| Airport | Malta International Airport (LMML) |
| Time | Latitude | Longitude | Altitude | Speed | Heading |
|---|---|---|---|---|---|
| 2026-05-07 17:39 | 38.68105 | 13.25128 | 36852 ft | 423 kts | 181° |
| 2026-05-07 17:40 | 38.62366 | 13.26637 | 36857 ft | 423 kts | 181° |
| 2026-05-07 17:40 | 38.56594 | 13.28152 | 36838 ft | 423 kts | 181° |
| 2026-05-07 17:41 | 38.50823 | 13.29672 | 36845 ft | 424 kts | 181° |
| 2026-05-07 17:41 | 38.45036 | 13.31187 | 36850 ft | 424 kts | 181° |
| 2026-05-07 17:42 | 38.39296 | 13.32691 | 36856 ft | 424 kts | 181° |
| 2026-05-07 17:42 | 38.33512 | 13.34211 | 36828 ft | 424 kts | 181° |
| 2026-05-07 17:43 | 38.27722 | 13.35719 | 36837 ft | 425 kts | 181° |
| 2026-05-07 17:43 | 38.21900 | 13.37236 | 36842 ft | 426 kts | 181° |
| 2026-05-07 17:44 | 38.16087 | 13.38742 | 36848 ft | 426 kts | 181° |
| 2026-05-07 17:44 | 38.10269 | 13.40245 | 36839 ft | 427 kts | 181° |
| 2026-05-07 17:45 | 38.04485 | 13.41742 | 36847 ft | 427 kts | 181° |
| 2026-05-07 17:45 | 37.98664 | 13.43251 | 36857 ft | 426 kts | 181° |
| 2026-05-07 17:46 | 37.92840 | 13.44751 | 36869 ft | 427 kts | 181° |
| 2026-05-07 17:46 | 37.87009 | 13.46254 | 36842 ft | 427 kts | 181° |
| 2026-05-07 17:47 | 37.81187 | 13.47768 | 36858 ft | 427 kts | 181° |
| 2026-05-07 17:47 | 37.75362 | 13.49258 | 36868 ft | 427 kts | 181° |
| 2026-05-07 17:48 | 37.69527 | 13.50750 | 36864 ft | 428 kts | 181° |
| 2026-05-07 17:48 | 37.63683 | 13.52250 | 36875 ft | 429 kts | 181° |
| 2026-05-07 17:49 | 37.57829 | 13.53749 | 36894 ft | 430 kts | 181° |
| 2026-05-07 17:49 | 37.51969 | 13.55245 | 36887 ft | 430 kts | 181° |
| 2026-05-07 17:50 | 37.46141 | 13.56733 | 36905 ft | 430 kts | 180° |
| 2026-05-07 17:50 | 37.40280 | 13.58221 | 36871 ft | 430 kts | 181° |
| 2026-05-07 17:51 | 37.34415 | 13.59716 | 36870 ft | 430 kts | 180° |
| 2026-05-07 17:51 | 37.28536 | 13.61214 | 36881 ft | 431 kts | 180° |
| 2026-05-07 17:52 | 37.22648 | 13.62703 | 36885 ft | 431 kts | 180° |
| 2026-05-07 17:52 | 37.16770 | 13.64185 | 36882 ft | 431 kts | 180° |
| 2026-05-07 17:53 | 37.10936 | 13.66024 | 36855 ft | 447 kts | 169° |
| 2026-05-07 17:53 | 37.05154 | 13.69016 | 36226 ft | 449 kts | 168° |
| 2026-05-07 17:54 | 37.02262 | 13.70514 | 35498 ft | 450 kts | 168° |
| 2026-05-07 17:54 | 36.99367 | 13.72010 | 34792 ft | 449 kts | 168° |
| 2026-05-07 17:54 | 36.96480 | 13.73494 | 34120 ft | 449 kts | 167° |
| 2026-05-07 17:54 | 36.93593 | 13.74971 | 33372 ft | 448 kts | 167° |
| 2026-05-07 17:55 | 36.90705 | 13.76447 | 32506 ft | 448 kts | 167° |
| 2026-05-07 17:55 | 36.87807 | 13.77927 | 31592 ft | 451 kts | 167° |
| 2026-05-07 17:55 | 36.84900 | 13.79414 | 30724 ft | 452 kts | 167° |
| 2026-05-07 17:55 | 36.82021 | 13.80888 | 29898 ft | 453 kts | 166° |
| 2026-05-07 17:56 | 36.79072 | 13.82400 | 28948 ft | 452 kts | 166° |
| 2026-05-07 17:56 | 36.76218 | 13.83869 | 28229 ft | 447 kts | 166° |
| 2026-05-07 17:56 | 36.73361 | 13.85340 | 27478 ft | 443 kts | 166° |
| 2026-05-07 17:56 | 36.70523 | 13.86796 | 26727 ft | 439 kts | 166° |
| 2026-05-07 17:57 | 36.67702 | 13.88237 | 26021 ft | 436 kts | 166° |
| 2026-05-07 17:57 | 36.65814 | 13.89198 | 25565 ft | 434 kts | 166° |
| 2026-05-07 17:57 | 36.62123 | 13.91073 | 24681 ft | 429 kts | 166° |
| 2026-05-07 17:57 | 36.59368 | 13.92470 | 24040 ft | 426 kts | 166° |
| 2026-05-07 17:58 | 36.56631 | 13.93862 | 23413 ft | 423 kts | 166° |
| 2026-05-07 17:58 | 36.53918 | 13.95243 | 22710 ft | 419 kts | 166° |
| 2026-05-07 17:58 | 36.51239 | 13.96604 | 22079 ft | 415 kts | 165° |
| 2026-05-07 17:58 | 36.48579 | 13.97952 | 21473 ft | 410 kts | 165° |
| 2026-05-07 17:59 | 36.45949 | 13.99285 | 20880 ft | 406 kts | 165° |
| 2026-05-07 17:59 | 36.43349 | 14.00603 | 20313 ft | 401 kts | 165° |
| 2026-05-07 17:59 | 36.40772 | 14.01907 | 19949 ft | 399 kts | 165° |
| 2026-05-07 17:59 | 36.38201 | 14.03206 | 19845 ft | 399 kts | 166° |
| 2026-05-07 18:00 | 36.35617 | 14.04505 | 19866 ft | 401 kts | 166° |
| 2026-05-07 18:00 | 36.33060 | 14.05789 | 19834 ft | 400 kts | 166° |
| 2026-05-07 18:00 | 36.30496 | 14.07084 | 19332 ft | 396 kts | 166° |
| 2026-05-07 18:00 | 36.27954 | 14.08369 | 18756 ft | 393 kts | 166° |
| 2026-05-07 18:01 | 36.25435 | 14.09639 | 18207 ft | 390 kts | 167° |
| 2026-05-07 18:01 | 36.22928 | 14.10901 | 17592 ft | 387 kts | 166° |
| 2026-05-07 18:01 | 36.20439 | 14.12150 | 17028 ft | 384 kts | 166° |
| 2026-05-07 18:01 | 36.17971 | 14.13390 | 16474 ft | 381 kts | 166° |
| 2026-05-07 18:02 | 36.13100 | 14.15837 | 15385 ft | 375 kts | 168° |
| 2026-05-07 18:02 | 36.10686 | 14.17047 | 14963 ft | 374 kts | 168° |
| 2026-05-07 18:02 | 36.08275 | 14.18253 | 14830 ft | 373 kts | 168° |
| 2026-05-07 18:03 | 36.05866 | 14.19489 | 14841 ft | 378 kts | 165° |
| 2026-05-07 18:03 | 36.03597 | 14.21183 | 14450 ft | 390 kts | 150° |
| 2026-05-07 18:03 | 36.01772 | 14.23754 | 13905 ft | 410 kts | 129° |
| 2026-05-07 18:03 | 36.00412 | 14.26884 | 13312 ft | 414 kts | 124° |
| 2026-05-07 18:04 | 35.99118 | 14.30038 | 12793 ft | 410 kts | 124° |
| 2026-05-07 18:04 | 35.97828 | 14.33159 | 12298 ft | 405 kts | 124° |
| 2026-05-07 18:04 | 35.96547 | 14.36231 | 11789 ft | 400 kts | 124° |
| 2026-05-07 18:04 | 35.95285 | 14.39230 | 11600 ft | 387 kts | 124° |
| 2026-05-07 18:05 | 35.94073 | 14.42123 | 11488 ft | 373 kts | 123° |
| 2026-05-07 18:05 | 35.93090 | 14.45049 | 11351 ft | 365 kts | 115° |
| 2026-05-07 18:05 | 35.92296 | 14.47976 | 11234 ft | 354 kts | 114° |
| 2026-05-07 18:05 | 35.91552 | 14.50783 | 11113 ft | 343 kts | 114° |
| 2026-05-07 18:06 | 35.90820 | 14.53557 | 10865 ft | 338 kts | 114° |
| 2026-05-07 18:06 | 35.90091 | 14.56297 | 10573 ft | 334 kts | 114° |
| 2026-05-07 18:06 | 35.89363 | 14.59009 | 10268 ft | 331 kts | 114° |
| 2026-05-07 18:06 | 35.88641 | 14.61682 | 9841 ft | 325 kts | 114° |
| 2026-05-07 18:07 | 35.87919 | 14.64308 | 9254 ft | 321 kts | 114° |
| 2026-05-07 18:07 | 35.87197 | 14.66894 | 8675 ft | 316 kts | 114° |
| 2026-05-07 18:07 | 35.86475 | 14.69436 | 8088 ft | 312 kts | 114° |
| 2026-05-07 18:07 | 35.85747 | 14.71938 | 7590 ft | 304 kts | 114° |
| 2026-05-07 18:08 | 35.85055 | 14.74281 | 7363 ft | 288 kts | 114° |
| 2026-05-07 18:08 | 35.84375 | 14.76574 | 6906 ft | 283 kts | 114° |
| 2026-05-07 18:08 | 35.83699 | 14.78836 | 6413 ft | 279 kts | 114° |
| 2026-05-07 18:08 | 35.83016 | 14.81054 | 5898 ft | 275 kts | 117° |
| 2026-05-07 18:09 | 35.81997 | 14.82975 | 5364 ft | 263 kts | 140° |
| 2026-05-07 18:09 | 35.80526 | 14.84202 | 4951 ft | 250 kts | 164° |
| 2026-05-07 18:09 | 35.78849 | 14.84646 | 4970 ft | 246 kts | 184° |
| 2026-05-07 18:09 | 35.77186 | 14.84336 | 4980 ft | 240 kts | 204° |
| 2026-05-07 18:10 | 35.75766 | 14.83333 | 4987 ft | 234 kts | 224° |
| 2026-05-07 18:10 | 35.74710 | 14.81826 | 4982 ft | 232 kts | 235° |
| 2026-05-07 18:10 | 35.73745 | 14.80230 | 4983 ft | 232 kts | 235° |
| 2026-05-07 18:10 | 35.72790 | 14.78669 | 4918 ft | 230 kts | 234° |
| 2026-05-07 18:11 | 35.71826 | 14.77102 | 4556 ft | 229 kts | 234° |
| 2026-05-07 18:11 | 35.71175 | 14.76045 | 4295 ft | 229 kts | 234° |
| 2026-05-07 18:11 | 35.69916 | 14.73994 | 4007 ft | 224 kts | 234° |
| 2026-05-07 18:11 | 35.68994 | 14.72492 | 4011 ft | 218 kts | 234° |
| 2026-05-07 18:12 | 35.68238 | 14.70905 | 4011 ft | 215 kts | 257° |
| 2026-05-07 18:12 | 35.68437 | 14.69111 | 4013 ft | 221 kts | 297° |
| 2026-05-07 18:12 | 35.69504 | 14.67694 | 3906 ft | 230 kts | 313° |
| 2026-05-07 18:12 | 35.70671 | 14.66360 | 3659 ft | 228 kts | 311° |
| 2026-05-07 18:13 | 35.71799 | 14.64995 | 3382 ft | 226 kts | 310° |
| 2026-05-07 18:13 | 35.72904 | 14.63634 | 3097 ft | 224 kts | 310° |
| 2026-05-07 18:13 | 35.73997 | 14.62285 | 2797 ft | 219 kts | 309° |
| 2026-05-07 18:13 | 35.75047 | 14.60991 | 2524 ft | 209 kts | 309° |
| 2026-05-07 18:14 | 35.76053 | 14.59750 | 2264 ft | 200 kts | 308° |
| 2026-05-07 18:14 | 35.77005 | 14.58575 | 2032 ft | 191 kts | 309° |
| 2026-05-07 18:14 | 35.77899 | 14.57472 | 1778 ft | 173 kts | 309° |
| 2026-05-07 18:14 | 35.78700 | 14.56484 | 1593 ft | 150 kts | 309° |
| 2026-05-07 18:15 | 35.79401 | 14.55618 | 1379 ft | 137 kts | 308° |
| 2026-05-07 18:15 | 35.80057 | 14.54804 | 1202 ft | 131 kts | 308° |
| 2026-05-07 18:15 | 35.80694 | 14.54015 | 1041 ft | 129 kts | 310° |
| 2026-05-07 18:15 | 35.81322 | 14.53237 | 878 ft | 127 kts | 310° |
| 2026-05-07 18:16 | 35.81945 | 14.52462 | 669 ft | 128 kts | 310° |
| 2026-05-07 18:16 | 35.82564 | 14.51687 | 612 ft | 127 kts | 310° |
| 2026-05-07 18:16 | 35.83194 | 14.50920 | 415 ft | 128 kts | 311° |
| 2026-05-07 18:16 | 35.83825 | 14.50181 | 273 ft | 125 kts | 311° |
| 2026-05-07 18:17 | 35.84479 | 14.49433 | 838 ft | 128 kts | 314° |
| 2026-05-07 18:17 | 35.85190 | 14.48763 | 1699 ft | 129 kts | 314° |
| 2026-05-07 18:17 | 35.85926 | 14.48021 | 2202 ft | 150 kts | 311° |
| 2026-05-07 18:17 | 35.86800 | 14.47119 | 2549 ft | 174 kts | 311° |
| 2026-05-07 18:18 | 35.87762 | 14.46110 | 3025 ft | 189 kts | 311° |
| 2026-05-07 18:18 | 35.88794 | 14.45008 | 3465 ft | 203 kts | 312° |
| 2026-05-07 18:18 | 35.90007 | 14.43977 | 3565 ft | 220 kts | 334° |
| 2026-05-07 18:18 | 35.91558 | 14.43860 | 3567 ft | 233 kts | 9° |
| 2026-05-07 18:19 | 35.92988 | 14.44834 | 3566 ft | 242 kts | 44° |
| 2026-05-07 18:19 | 35.93816 | 14.46626 | 3566 ft | 244 kts | 79° |
| 2026-05-07 18:19 | 35.93772 | 14.48667 | 3567 ft | 237 kts | 113° |
| 2026-05-07 18:19 | 35.93116 | 14.50521 | 3573 ft | 235 kts | 122° |
| 2026-05-07 18:20 | 35.92348 | 14.52303 | 3573 ft | 235 kts | 124° |
| 2026-05-07 18:20 | 35.91561 | 14.54073 | 3576 ft | 236 kts | 124° |
| 2026-05-07 18:20 | 35.90770 | 14.55844 | 3574 ft | 235 kts | 124° |
| 2026-05-07 18:20 | 35.89982 | 14.57611 | 3573 ft | 235 kts | 124° |
| 2026-05-07 18:21 | 35.89193 | 14.59378 | 3536 ft | 234 kts | 124° |
| 2026-05-07 18:21 | 35.88413 | 14.61137 | 3266 ft | 234 kts | 124° |
| 2026-05-07 18:21 | 35.87649 | 14.62875 | 3065 ft | 233 kts | 124° |
| 2026-05-07 18:21 | 35.86877 | 14.64635 | 3003 ft | 233 kts | 124° |
| 2026-05-07 18:22 | 35.86104 | 14.66392 | 3017 ft | 233 kts | 124° |
| 2026-05-07 18:22 | 35.85581 | 14.67580 | 3028 ft | 233 kts | 124° |
| 2026-05-07 18:22 | 35.84249 | 14.69557 | 3027 ft | 222 kts | 154° |
| 2026-05-07 18:22 | 35.82859 | 14.70210 | 3024 ft | 210 kts | 180° |
| 2026-05-07 18:23 | 35.81418 | 14.70244 | 3031 ft | 207 kts | 186° |
| 2026-05-07 18:23 | 35.80003 | 14.70237 | 3031 ft | 200 kts | 186° |
| 2026-05-07 18:23 | 35.78616 | 14.70234 | 3027 ft | 198 kts | 186° |
| 2026-05-07 18:23 | 35.77237 | 14.70229 | 3025 ft | 198 kts | 187° |
| 2026-05-07 18:24 | 35.75871 | 14.70220 | 3025 ft | 199 kts | 187° |
| 2026-05-07 18:24 | 35.74493 | 14.70212 | 3050 ft | 198 kts | 187° |
| 2026-05-07 18:24 | 35.73117 | 14.70207 | 3037 ft | 196 kts | 187° |
| 2026-05-07 18:24 | 35.71759 | 14.70203 | 3035 ft | 194 kts | 187° |
| 2026-05-07 18:25 | 35.70414 | 14.70197 | 3026 ft | 193 kts | 187° |
| 2026-05-07 18:25 | 35.69071 | 14.70190 | 3027 ft | 193 kts | 187° |
| 2026-05-07 18:25 | 35.67725 | 14.70185 | 3031 ft | 194 kts | 187° |
| 2026-05-07 18:25 | 35.66410 | 14.70002 | 3019 ft | 186 kts | 208° |
| 2026-05-07 18:26 | 35.65500 | 14.68976 | 3028 ft | 178 kts | 245° |
| 2026-05-07 18:26 | 35.65396 | 14.67487 | 3028 ft | 182 kts | 282° |
| 2026-05-07 18:26 | 35.66112 | 14.66167 | 3039 ft | 192 kts | 309° |
| 2026-05-07 18:26 | 35.67109 | 14.65086 | 3035 ft | 194 kts | 313° |
| 2026-05-07 18:27 | 35.68154 | 14.64029 | 3028 ft | 195 kts | 314° |
| 2026-05-07 18:27 | 35.69207 | 14.62973 | 3029 ft | 195 kts | 314° |
| 2026-05-07 18:27 | 35.70257 | 14.61923 | 3032 ft | 195 kts | 314° |
| 2026-05-07 18:27 | 35.70953 | 14.61226 | 3032 ft | 195 kts | 314° |
| 2026-05-07 18:28 | 35.72503 | 14.60024 | 3018 ft | 203 kts | 333° |
| 2026-05-07 18:28 | 35.73867 | 14.59549 | 2928 ft | 203 kts | 339° |
| 2026-05-07 18:28 | 35.75255 | 14.59155 | 2439 ft | 209 kts | 340° |
| 2026-05-07 18:28 | 35.76589 | 14.58720 | 2234 ft | 188 kts | 330° |
| 2026-05-07 18:29 | 35.77558 | 14.57886 | 1920 ft | 156 kts | 308° |
| 2026-05-07 18:29 | 35.78278 | 14.57001 | 1707 ft | 138 kts | 308° |
| 2026-05-07 18:29 | 35.78933 | 14.56192 | 1520 ft | 130 kts | 308° |
| 2026-05-07 18:29 | 35.79565 | 14.55409 | 1356 ft | 129 kts | 308° |
| 2026-05-07 18:30 | 35.80195 | 14.54630 | 1181 ft | 129 kts | 309° |
| 2026-05-07 18:30 | 35.80821 | 14.53855 | 1013 ft | 127 kts | 309° |
| 2026-05-07 18:30 | 35.81233 | 14.53344 | 906 ft | 127 kts | 309° |
| 2026-05-07 18:30 | 35.81859 | 14.52570 | 749 ft | 127 kts | 310° |
| 2026-05-07 18:31 | 35.82482 | 14.51791 | 563 ft | 129 kts | 312° |
| 2026-05-07 18:31 | 35.83129 | 14.51016 | 384 ft | 130 kts | 310° |
| 2026-05-07 18:31 | 35.83752 | 14.50220 | 271 ft | 129 kts | 310° |
| 2026-05-07 18:31 | 35.84323 | 14.49511 | 258 ft | 94 kts | 315° |
| 2026-05-07 18:32 | 35.84655 | 14.49102 | 259 ft | 39 kts | 316° |
| 2026-05-07 18:32 | 35.84812 | 14.48998 | 259 ft | 17 kts | 341° |
| 2026-05-07 18:32 | 35.84918 | 14.48996 | 259 ft | 15 kts | 43° |
| 2026-05-07 18:32 | 35.84919 | 14.49081 | 259 ft | 0 kts | 127° |
| 2026-05-07 18:33 | 35.84918 | 14.49082 | 259 ft | 1 kts | 127° |
| 2026-05-07 18:33 | 35.84904 | 14.49104 | 259 ft | 3 kts | 130° |
| 2026-05-07 18:33 | 35.84897 | 14.49121 | 259 ft | 2 kts | 106° |
| 2026-05-07 18:33 | 35.84899 | 14.49136 | 259 ft | 3 kts | 70° |
| 2026-05-07 18:34 | 35.84907 | 14.49153 | 258 ft | 0 kts | 61° |
| 2026-05-07 18:34 | 35.84923 | 14.49177 | 258 ft | 13 kts | 48° |
| 2026-05-07 18:34 | 35.84937 | 14.49258 | 258 ft | 9 kts | 97° |
| 2026-05-07 18:35 | 35.84902 | 14.49266 | 259 ft | 7 kts | 225° |
| 2026-05-07 18:35 | 35.84875 | 14.49233 | 258 ft | 3 kts | 224° |
| 2026-05-07 18:35 | 35.84864 | 14.49220 | 259 ft | 0 kts | 224° |